createdAt,value
2022-08-31T00:00:19.316Z,57.65
2022-08-31T00:05:40.436Z,57.53
2022-08-31T00:10:47.927Z,57.74
2022-08-31T00:15:52.631Z,57.86
2022-08-31T00:20:55.598Z,58.05
2022-08-31T00:25:59.853Z,58.01
2022-08-31T00:31:03.051Z,58.05
2022-08-31T00:36:09.301Z,58.20
2022-08-31T00:41:12.251Z,58.46
2022-08-31T00:46:20.027Z,58.36
2022-08-31T00:51:25.369Z,58.56
2022-08-31T00:56:31.558Z,58.56
2022-08-31T01:01:34.981Z,58.76
2022-08-31T01:06:38.615Z,58.76
2022-08-31T01:11:42.510Z,58.79
2022-08-31T01:16:51.259Z,58.97
2022-08-31T01:22:19.499Z,58.86
2022-08-31T01:27:27.722Z,58.93
2022-08-31T01:32:30.702Z,58.94
2022-08-31T01:37:33.959Z,58.97
2022-08-31T01:42:39.414Z,58.98
2022-08-31T01:47:44.865Z,59.20
2022-08-31T01:52:47.823Z,59.24
2022-08-31T01:57:51.006Z,59.21
2022-08-31T02:03:20.717Z,59.28
2022-08-31T02:08:23.673Z,59.23
2022-08-31T02:13:26.883Z,59.21
2022-08-31T02:18:29.748Z,59.33
2022-08-31T02:23:32.623Z,59.30
2022-08-31T02:28:36.200Z,59.21
2022-08-31T02:33:39.739Z,59.51
2022-08-31T02:38:42.973Z,59.54
2022-08-31T02:43:46.125Z,59.75
2022-08-31T02:48:49.680Z,59.49
2022-08-31T02:53:54.220Z,59.75
2022-08-31T02:58:57.541Z,59.89
2022-08-31T03:04:01.026Z,60.15
2022-08-31T03:09:04.911Z,60.05
2022-08-31T03:14:08.067Z,60.16
2022-08-31T03:19:11.098Z,60.33
2022-08-31T03:24:14.744Z,60.45
2022-08-31T03:29:18.158Z,60.52
2022-08-31T03:34:33.036Z,60.70
2022-08-31T03:39:36.224Z,60.65
2022-08-31T03:44:39.673Z,60.70
2022-08-31T03:49:45.029Z,60.72
2022-08-31T03:54:56.130Z,60.78
2022-08-31T04:00:00.669Z,60.62
2022-08-31T04:05:21.451Z,61.03
2022-08-31T04:10:44.694Z,61.07
2022-08-31T04:16:00.593Z,60.99
2022-08-31T04:21:43.204Z,61.46
2022-08-31T04:26:51.800Z,61.51
2022-08-31T04:31:54.885Z,61.76
2022-08-31T04:36:59.227Z,61.73
2022-08-31T04:42:05.855Z,61.59
2022-08-31T04:47:10.128Z,61.39
2022-08-31T04:52:13.362Z,61.62
2022-08-31T04:57:16.891Z,61.54
2022-08-31T05:02:19.933Z,62.55
2022-08-31T05:07:29.052Z,61.86
2022-08-31T05:12:33.995Z,61.16
2022-08-31T05:17:37.003Z,61.81
2022-08-31T05:22:40.322Z,61.55
2022-08-31T05:27:43.742Z,60.97
2022-08-31T05:32:48.386Z,60.28
2022-08-31T05:37:51.818Z,59.52
2022-08-31T05:42:59.542Z,59.67
2022-08-31T05:48:02.947Z,60.04
2022-08-31T05:53:07.713Z,60.33
2022-08-31T05:58:10.636Z,59.91
2022-08-31T06:03:13.497Z,60.23
2022-08-31T06:08:17.636Z,60.26
2022-08-31T06:13:26.579Z,59.75
2022-08-31T06:18:31.229Z,59.18
2022-08-31T06:23:34.288Z,59.30
2022-08-31T06:28:50.140Z,59.69
2022-08-31T06:33:56.041Z,59.62
2022-08-31T06:39:17.850Z,59.16
2022-08-31T06:44:52.934Z,58.55
2022-08-31T06:49:59.089Z,58.33
2022-08-31T06:55:02.418Z,58.38
2022-08-31T07:00:24.032Z,58.58
2022-08-31T07:05:45.617Z,58.65
2022-08-31T07:10:49.086Z,58.70
2022-08-31T07:15:52.414Z,58.79
2022-08-31T07:20:55.987Z,58.99
2022-08-31T07:26:11.413Z,58.93
2022-08-31T07:31:17.850Z,59.02
2022-08-31T07:36:24.858Z,59.17
2022-08-31T07:41:58.893Z,59.17
2022-08-31T07:47:03.844Z,59.15
2022-08-31T07:52:07.056Z,59.63
2022-08-31T07:57:30.377Z,59.47
2022-08-31T08:02:39.970Z,58.69
2022-08-31T08:07:43.058Z,58.04
2022-08-31T08:13:05.904Z,57.89
2022-08-31T08:18:21.601Z,57.69
2022-08-31T08:23:29.126Z,57.66
2022-08-31T08:29:06.317Z,58.70
2022-08-31T08:34:13.490Z,58.85
2022-08-31T08:39:18.140Z,58.71
2022-08-31T08:44:33.629Z,58.34
2022-08-31T08:49:42.185Z,57.80
2022-08-31T08:54:48.327Z,57.28
2022-08-31T08:59:56.244Z,56.76
2022-08-31T09:05:25.243Z,56.40
2022-08-31T09:11:08.981Z,56.30
2022-08-31T09:16:22.420Z,56.54
2022-08-31T09:21:43.364Z,56.88
2022-08-31T09:26:54.591Z,56.80
2022-08-31T09:32:16.762Z,56.29
2022-08-31T09:37:25.513Z,56.02
2022-08-31T09:42:33.879Z,56.15
2022-08-31T09:47:52.506Z,56.60
2022-08-31T09:53:31.196Z,56.67
2022-08-31T09:58:34.247Z,56.23
2022-08-31T10:03:37.747Z,56.29
2022-08-31T10:08:53.708Z,56.23
2022-08-31T10:14:07.768Z,56.19
2022-08-31T10:19:18.252Z,56.11
2022-08-31T10:24:38.448Z,56.09
2022-08-31T10:29:54.910Z,56.11
2022-08-31T10:35:07.304Z,55.93
2022-08-31T10:40:24.723Z,55.49
2022-08-31T10:45:30.000Z,55.27
2022-08-31T10:50:45.265Z,55.04
2022-08-31T10:56:02.499Z,54.86
2022-08-31T11:01:52.072Z,54.81
2022-08-31T11:07:14.170Z,54.61
2022-08-31T11:12:23.729Z,54.27
2022-08-31T11:17:50.020Z,54.35
2022-08-31T11:23:27.017Z,54.04
2022-08-31T11:28:38.914Z,53.91
2022-08-31T11:34:14.138Z,53.64
2022-08-31T11:39:13.570Z,53.03
2022-08-31T11:44:29.710Z,52.85
2022-08-31T11:49:39.968Z,52.49
2022-08-31T11:54:50.450Z,52.03
2022-08-31T11:59:54.671Z,51.71
2022-08-31T12:05:03.080Z,51.38
2022-08-31T12:10:32.591Z,51.16
2022-08-31T12:16:06.941Z,50.51
2022-08-31T12:21:50.373Z,49.75
2022-08-31T12:27:04.866Z,49.56
2022-08-31T12:32:29.330Z,49.00
2022-08-31T12:37:34.961Z,48.94
2022-08-31T12:42:43.691Z,48.65
2022-08-31T12:48:12.508Z,48.36
2022-08-31T12:53:24.380Z,48.12
2022-08-31T12:58:38.230Z,48.23
2022-08-31T13:03:54.064Z,48.29
2022-08-31T13:08:59.194Z,48.03
2022-08-31T13:14:18.773Z,48.02
2022-08-31T13:19:24.154Z,47.88
2022-08-31T13:24:33.551Z,47.41
2022-08-31T13:29:45.413Z,46.93
2022-08-31T13:34:49.391Z,46.90
2022-08-31T13:39:53.103Z,46.46
2022-08-31T13:45:02.616Z,46.55
2022-08-31T13:50:17.197Z,46.62
2022-08-31T13:55:33.545Z,46.50
2022-08-31T14:00:42.625Z,46.30
2022-08-31T14:05:45.522Z,46.21
2022-08-31T14:10:49.766Z,46.10
2022-08-31T14:15:56.599Z,45.95
2022-08-31T14:21:20.142Z,45.82
2022-08-31T14:26:28.155Z,45.66
2022-08-31T14:31:43.693Z,45.56
2022-08-31T14:36:53.351Z,45.53
2022-08-31T14:42:00.998Z,45.58
2022-08-31T14:47:04.372Z,45.54
2022-08-31T14:52:08.211Z,45.45
2022-08-31T14:57:15.609Z,45.31
2022-08-31T15:02:21.742Z,45.31
2022-08-31T15:07:24.715Z,45.15
2022-08-31T15:12:28.472Z,45.14
2022-08-31T15:17:36.270Z,45.13
2022-08-31T15:22:41.112Z,45.11
2022-08-31T15:27:44.697Z,45.09
2022-08-31T15:32:48.971Z,44.96
2022-08-31T15:37:59.151Z,44.93
2022-08-31T15:43:03.942Z,44.90
2022-08-31T15:48:25.736Z,44.68
2022-08-31T15:53:30.688Z,44.71
2022-08-31T15:58:35.280Z,44.33
2022-08-31T16:03:40.757Z,44.20
2022-08-31T16:08:43.888Z,44.04
2022-08-31T16:13:52.293Z,43.94
2022-08-31T16:18:59.828Z,43.99
2022-08-31T16:24:07.364Z,43.97
2022-08-31T16:29:13.739Z,44.00
2022-08-31T16:34:18.776Z,44.03
2022-08-31T16:39:25.295Z,44.00
2022-08-31T16:44:36.403Z,43.91
2022-08-31T16:49:43.640Z,43.89
2022-08-31T16:54:51.118Z,44.02
2022-08-31T16:59:58.536Z,44.07
2022-08-31T17:05:04.834Z,44.11
2022-08-31T17:10:08.633Z,44.19
2022-08-31T17:15:13.993Z,44.20
2022-08-31T17:20:17.085Z,44.52
2022-08-31T17:25:20.241Z,44.71
2022-08-31T17:30:23.356Z,44.89
2022-08-31T17:35:26.984Z,44.89
2022-08-31T17:40:30.542Z,45.09
2022-08-31T17:45:35.996Z,44.84
2022-08-31T17:50:44.151Z,45.38
2022-08-31T17:55:56.923Z,45.47
2022-08-31T18:01:00.499Z,45.47
2022-08-31T18:06:03.659Z,46.37
2022-08-31T18:11:07.596Z,46.53
2022-08-31T18:16:14.013Z,46.24
2022-08-31T18:21:22.387Z,46.04
2022-08-31T18:26:30.871Z,45.94
2022-08-31T18:31:34.469Z,46.00
2022-08-31T18:36:38.998Z,46.08
2022-08-31T18:42:00.707Z,46.37
2022-08-31T18:47:07.596Z,46.60
2022-08-31T18:52:19.659Z,47.56
2022-08-31T18:57:26.626Z,47.18
2022-08-31T19:02:30.266Z,47.09
2022-08-31T19:07:34.137Z,47.20
2022-08-31T19:12:38.674Z,47.32
2022-08-31T19:17:45.587Z,47.75
2022-08-31T19:22:48.553Z,48.00
2022-08-31T19:27:52.436Z,48.13
2022-08-31T19:32:57.430Z,48.30
2022-08-31T19:38:01.449Z,48.57
2022-08-31T19:48:33.093Z,48.83
2022-08-31T19:53:50.098Z,49.08
2022-08-31T19:58:56.587Z,49.09
2022-08-31T20:04:02.492Z,49.39
2022-08-31T20:09:07.116Z,49.52
2022-08-31T20:14:10.845Z,49.69
2022-08-31T20:19:20.857Z,49.85
2022-08-31T20:24:27.306Z,49.91
2022-08-31T20:29:32.537Z,49.88
2022-08-31T20:34:38.365Z,49.95
2022-08-31T20:39:42.254Z,50.12
2022-08-31T20:44:48.831Z,50.26
2022-08-31T20:50:00.961Z,50.20
2022-08-31T20:55:07.055Z,50.31
2022-08-31T21:00:10.756Z,50.27
2022-08-31T21:05:37.124Z,50.43
2022-08-31T21:10:40.341Z,50.48
2022-08-31T21:15:46.255Z,50.56
2022-08-31T21:20:51.653Z,50.66
2022-08-31T21:25:55.280Z,50.82
2022-08-31T21:31:18.649Z,50.79
2022-08-31T21:36:33.780Z,50.80
2022-08-31T21:41:38.050Z,51.08
2022-08-31T21:46:41.669Z,50.90
2022-08-31T21:51:52.971Z,51.07
2022-08-31T21:57:00.716Z,51.23
2022-08-31T22:02:09.397Z,51.30
2022-08-31T22:07:14.459Z,51.38
2022-08-31T22:12:18.346Z,51.20
2022-08-31T22:17:29.395Z,51.27
2022-08-31T22:22:40.057Z,51.51
2022-08-31T22:27:43.258Z,51.43
2022-08-31T22:32:48.064Z,51.29
2022-08-31T22:37:50.958Z,51.51
2022-08-31T22:42:54.886Z,51.73
2022-08-31T22:47:57.743Z,51.71
2022-08-31T22:53:00.925Z,51.93
2022-08-31T22:58:05.061Z,52.00
2022-08-31T23:03:08.238Z,51.97
2022-08-31T23:08:11.943Z,52.11
2022-08-31T23:13:14.855Z,52.15
2022-08-31T23:18:20.391Z,52.09
2022-08-31T23:23:24.593Z,52.10
2022-08-31T23:28:28.843Z,52.25
2022-08-31T23:33:31.688Z,52.14
2022-08-31T23:38:35.006Z,52.33
2022-08-31T23:43:38.476Z,52.42
2022-08-31T23:48:41.472Z,52.67
2022-08-31T23:53:55.199Z,52.50
2022-08-31T23:59:01.847Z,52.61
